Dover, Canada
Current Conditions -  °F | °C
As of 12:00 PM on Thursday 30 Oct 2014 (Local Time) from CYQX Reporting Station
Overcast Overcast  
Wind Chill: 59°   Ceiling: 1400
Heat Index: 59°   Visibility: 15mi
Dew Point: 55°   Wind: 22mph
Humidity: 88%   Direction: 210°SSW
Pressure: 29.59"   Gusts: 32mph
Location:  48.85°N, 53.98°W
Report Text: CYQX 301400Z 21019G28KT 15SM FEW008 BKN014 OVC025 15/13 A2959 RMK SF1SC5SC2 SLP024 DENSITY ALT 1000FT
Loading
Personal Weather Stations






























Interactive Weather Map
Tropical Storm Tracking
New forecast layout! Learn more

10-Day Weather Forecast

Advertisements
Track Severe Weather on mobile